Campanya meteocatpedra

Dades de l'estació automàtica Port de Barcelona - Bocana Sud

?
?
Resum diari 20:00 TU
Dades diàries de l'estació meteorològica
Ratxa màxima del vent (10 m) 12.2 km/h - 185º 9:57 TU

El tram horari està expressat en Temps Universal (TU). Cal sumar una hora en horari d'hivern i dues en horari d'estiu per passar a l'hora oficial.

Port de Barcelona - Bocana Sud

Metadades estació meteorol´gica
Municipi El Prat de Llobregat
Comarca Baix Llobregat
Altitud 3 m
Data alta 08.04.2015
Estat actual Operativa
Dades de període
Període
TU
VVM (10 m)
km/h
DVM (10 m)
graus
VVX (10 m)
km/h
00:00 - 00:30 2.2 127 4.3
00:30 - 01:00 3.6 170 6.5
01:00 - 01:30 2.5 260 5.0
01:30 - 02:00 4.3 304 7.2
02:00 - 02:30 4.7 346 6.5
02:30 - 03:00 3.2 346 7.6
03:00 - 03:30 6.5 24 11.2
03:30 - 04:00 5.0 358 6.5
04:00 - 04:30 5.0 353 7.6
04:30 - 05:00 1.1 272 2.9
05:00 - 05:30 0.4 261 3.2
05:30 - 06:00 5.0 275 7.9
06:00 - 06:30 3.2 289 5.8
06:30 - 07:00 1.1 265 2.9
07:00 - 07:30 1.8 252 4.3
07:30 - 08:00 1.1 301 2.9
08:00 - 08:30 1.4 326 3.6
08:30 - 09:00 2.2 51 4.0
09:00 - 09:30 1.8 94 4.7
09:30 - 10:00 4.7 117 12.2
10:00 - 10:30 9.4 190 12.2
10:30 - 11:00 6.1 178 7.6
11:00 - 11:30 6.5 173 8.6
11:30 - 12:00 6.5 173 7.9
12:00 - 12:30 5.8 153 8.3
12:30 - 13:00 5.8 136 8.6
13:00 - 13:30 4.3 129 7.6
13:30 - 14:00 4.3 127 6.8
14:00 - 14:30 3.6 119 7.6
14:30 - 15:00 3.2 127 7.6
15:00 - 15:30 4.7 90 6.8
15:30 - 16:00 4.7 91 7.2
16:00 - 16:30 4.7 67 8.3
16:30 - 17:00 2.2 73 5.0
17:00 - 17:30 0.7 93 2.9
17:30 - 18:00 0.4 78 1.8
18:00 - 18:30 0.4 54 1.8
18:30 - 19:00 1.1 60 2.5
19:00 - 19:30 2.9 61 4.0
19:30 - 20:00 1.1 36 2.9
20:00 - 20:30 2.5 8 3.6

Les dades en taronja només han passat un control de qualitat automàtic. Resta pendent la seva validació definitiva.